Aktualne dane pomiarowe

Uwaga, wersja testowa! Automatyczne pobieranie danych za pomocą narzędzi lub skryptów to umożliwiających jest zabronione.

Dane meteo z obszaru Polski uzyskane na podstawie depesz SYNOP pobieranych co godzinę z NWS. Najedź myszką na symbol przedstawiony w tabeli, aby uzyskać informacje co do jego znaczenia. Prosimy pamiętać, że to testowa wersja strony, która jeszcze nie jest ukończona. Stworzono również jest krótki FAQ dotyczący korzystania z tej podstrony Anomalie temperatury w chwili obecnej odniesione są do okresu referencyjnego 1951-2016. Okres ten będzie później zmieniony na 1981-2010. Kliknij ikonę aby pobrać plik CSV. Kliknij ikonę aby wygenerować mapę synoptyczną dla danego terminu.

Wybierz Datę:    

        

Przemyśl (12695)

Dane terminowe dla wybranej stacji. Kliknij datę, aby otrzymać dane z tego terminu dla wszystkich stacji.

TemperaturaZachmurzenieWiatrCiśnienieOpadyPogoda
 Data t td wb tx tn tg rh  Nt Nl Cl Cm Ch ws wd g1 g2 wx mslp ppp ch 24h 12h t ww ww w1 w2  
2019-08-17 23:00:00 14.9 12.7 13.4--- 87---1wx---1015.9 982.9 -0.2---wx-----
2019-08-17 22:00:00 16.7 12.0 13.6--- 74---2wx---1015.7 982.9 -0.3---wx-----
2019-08-17 21:00:00 17.3 11.6 13.7--- 69---1wx---1015.9 983.1 0.0---wx-----
2019-08-17 20:00:00 18.6 11.3 14.1--- 63---1----1015.7 983.1 0.0---wx-----
2019-08-17 19:00:00 19.5 11.3 14.4--- 59---1----1015.7 983.2 0.0---wx-----
2019-08-17 18:00:00 20.5 11.4 14.9 24.6 11.0- 56---1----1015.6 983.1 0.0- 0.012wx-----
2019-08-17 17:00:00 21.6 11.0 15.2--- 51---1----1015.2 982.9 -0.3---wx-----
2019-08-17 16:00:00 22.9 11.1 15.8--- 47---1----1015.2 983.1 -0.5---wx-----
2019-08-17 15:00:00 23.9 10.8 16.1--- 44---1----1015.1 983.1 -1.0---wx-----
2019-08-17 14:00:00 24.4 10.5 16.2--- 42---1----1015.2 983.3 -1.2---wx-----
2019-08-17 13:00:00 23.6 10.4 15.8--- 43---1----1015.7 983.6 -1.1---wx-----
2019-08-17 12:00:00 23.9 10.2 15.8--- 42---1----1016.1 984.0 -0.9- 0.06wx-----
2019-08-17 11:00:00 23.1 10.6 15.7--- 45---2----1016.6 984.4 -0.7---wx-----
2019-08-17 10:00:00 22.5 10.2 15.2--- 46---2----1017.0 984.7 -0.5---wx-----
2019-08-17 09:00:00 21.8 12.5 16.0--- 56---1----1017.3 985.0 0.0---wx-----
2019-08-17 08:00:00 20.1 12.4 15.3--- 61---1----1017.7 985.1 0.2---wx-----
2019-08-17 07:00:00 18.1 13.5 15.1--- 75---2----1018.0 985.2 0.5---wx-----
2019-08-17 06:00:00 16.1 11.1 12.9 22.5 11.0 10 72---2----1018.1 985.1 0.6 0.0 0.012wx---- 12.4
2019-08-17 05:00:00 13.6 10.3 11.4--- 80---2wx---1018.2 984.9 0.7---------
2019-08-17 04:00:00 11.9 10.0 10.6--- 88---3wx---1018.2 984.8 0.4---wx-----
2019-08-17 03:00:00 11.7 10.0 10.5--- 89---2wx---1018.0 984.5 0.0---wx-----
2019-08-17 02:00:00 12.6 9.7 10.7--- 83---3wx---1017.6 984.2 -0.3---------
2019-08-17 01:00:00 12.9 9.6 10.8--- 80---2wx---1017.7 984.3 -0.2---wx-----
2019-08-17 00:00:00 12.6 10.6 11.2--- 88---2wx---1017.8 984.4 0.0- 0.06wx-----
2019-08-16 23:00:00 12.7 9.8 10.8--- 83---2wx---1017.9 984.5 0.0---wx-----
2019-08-16 22:00:00 12.9 10.3 11.2--- 84---2wx---1017.9 984.6 0.4---wx-----
2019-08-16 21:00:00 14.8 9.9 11.7--- 72---2wx---1017.6 984.5 0.8---wx-----
2019-08-16 20:00:00 14.8 10.2 11.9--- 74---2wx---1017.6 984.5 1.1---wx-----
2019-08-16 19:00:00 17.4 8.9 12.4--- 57---1wx---1017.0 984.2 1.0---wx-----
2019-08-16 18:00:00 18.6 7.6 12.3 22.5 9.4- 49---1wx---1016.4 983.7 0.5- 0.012wx-----
2019-08-16 17:00:00 20.6 7.4 13.2--- 42---1----1015.8 983.4 0.0---wx-----
2019-08-16 16:00:00 21.2 8.3 13.8--- 44---0----1015.5 983.1 -0.4---------
2019-08-16 15:00:00 20.7 7.6 13.3--- 43---2wx---1015.7 983.3 -0.4---wx-----
2019-08-16 14:00:00 21.9 7.7 13.9--- 40---2----1015.5 983.3 -0.5---wx-----
2019-08-16 13:00:00 21.5 8.8 14.2--- 44---2----1015.9 983.5 -0.4---wx-----
2019-08-16 12:00:00 21.7 8.5 14.1--- 43---2----1016.0 983.7 -0.5- 0.06wx-----
2019-08-16 11:00:00 21.6 10.7 15.1--- 50---0----1016.1 983.8 -0.6---------
2019-08-16 10:00:00 20.5 9.4 14.0--- 49---2----1016.4 984.0 -0.4---wx-----
2019-08-16 09:00:00 19.7 11.9 14.8--- 61---2----1016.8 984.2 0.0---wx-----
2019-08-16 08:00:00 18.5 12.7 14.8--- 69---2----1017.1 984.4 0.4---wx-----
2019-08-16 07:00:00 16.4 12.4 13.8--- 77---1----1017.3 984.3 0.4---wx-----
2019-08-16 06:00:00 12.3 11.3 11.6 20.6 9.4 9 94---1----1017.7 984.2 0.5 0.0 0.012wx---- 11.1
2019-08-16 05:00:00 10.6 10.3 10.3--- 98---1wx---1017.6 984.0 0.3---wx-----
2019-08-16 04:00:00 9.4 9.2 9.2--- 99---2wx---1017.7 983.9 0.2---wx-----
2019-08-16 03:00:00 10.3 9.9 10.0--- 97---2wx---1017.4 983.8 0.0---wx-----
2019-08-16 02:00:00 10.7 10.3 10.4--- 97---2wx---1017.2 983.7 -0.3---wx-----
2019-08-16 01:00:00 11.0 10.6 10.7--- 97---2wx---1017.2 983.7 -0.4---------
2019-08-16 00:00:00 11.6 11.0 11.1--- 96---2wx---1017.4 983.9 -0.2- 0.06wx-----
2.5 ms

 

Print Friendly, PDF & Email